Time;durP1;ratioP1;P1;durP2;ratioP2;P2;SDS_P1;SDS_P2;PMS_P1;PMS_P2;Temp;Humidity;BMP_temperature;BMP_pressure;BME280_temperature;BME280_humidity;BME280_pressure;Samples;Min_cycle;Max_cycle;Signal;HPM_P1;HPM_P2
2023/10/02 00:01:06;;;;;;;22.70;16.58;;;;;;;;;;5056150;28;20044;-79
2023/10/02 00:03:34;;;;;;;25.05;16.95;;;;;;;;;;5056370;28;20048;-80
2023/10/02 00:06:00;;;;;;;20.38;15.85;;;;;;;;;;5040197;28;20052;-79
2023/10/02 00:08:34;;;;;;;22.88;17.02;;;;;;;;;;5055929;28;20045;-80
2023/10/02 00:14:38;;;;;;;23.33;16.17;;;;;;;;;;5056272;28;20060;-79
2023/10/02 00:17:05;;;;;;;24.45;16.75;;;;;;;;;;5050572;28;20072;-79
2023/10/02 00:19:31;;;;;;;22.40;16.23;;;;;;;;;;5056203;28;20083;-79
2023/10/02 00:21:57;;;;;;;23.52;16.67;;;;;;;;;;5039301;28;20118;-79
2023/10/02 00:24:25;;;;;;;28.35;17.83;;;;;;;;;;5056666;28;20041;-80
2023/10/02 00:26:51;;;;;;;23.52;16.60;;;;;;;;;;5074283;28;20108;-79
2023/10/02 00:29:17;;;;;;;25.83;17.35;;;;;;;;;;5059424;28;20135;-79
2023/10/02 00:31:46;;;;;;;24.48;16.60;;;;;;;;;;5059118;28;20079;-79
2023/10/02 00:34:14;;;;;;;20.77;16.10;;;;;;;;;;5042994;28;20112;-79
2023/10/02 00:36:40;;;;;;;24.20;16.42;;;;;;;;;;5058890;28;20044;-79
2023/10/02 00:39:25;;;;;;;25.40;17.25;;;;;;;;;;5075370;28;20048;-79
2023/10/02 00:42:15;;;;;;;24.13;15.80;;;;;;;;;;5076036;28;20055;-79
2023/10/02 00:44:51;;;;;;;22.70;16.27;;;;;;;;;;5076518;28;20055;-79
2023/10/02 00:47:41;;;;;;;25.33;17.50;;;;;;;;;;5076027;28;20136;-79
2023/10/02 00:50:19;;;;;;;23.88;17.05;;;;;;;;;;5075371;28;20044;-79
2023/10/02 00:52:45;;;;;;;21.67;15.73;;;;;;;;;;5076542;28;20036;-78
2023/10/02 00:55:14;;;;;;;22.30;16.88;;;;;;;;;;5076469;28;20056;-78
2023/10/02 00:57:41;;;;;;;25.45;18.10;;;;;;;;;;5059309;28;20476;-79
2023/10/02 01:00:17;;;;;;;23.33;17.60;;;;;;;;;;5076439;28;20072;-79
2023/10/02 01:02:45;;;;;;;24.40;17.67;;;;;;;;;;5076392;28;20083;-79
2023/10/02 01:05:16;;;;;;;22.90;16.92;;;;;;;;;;5075541;28;20225;-80
2023/10/02 01:07:42;;;;;;;24.15;18.08;;;;;;;;;;5058745;28;20055;-79
2023/10/02 01:10:17;;;;;;;24.00;17.33;;;;;;;;;;5075801;28;20036;-79
2023/10/02 01:12:44;;;;;;;27.17;17.90;;;;;;;;;;5059042;28;20132;-79
2023/10/02 01:15:12;;;;;;;22.40;16.83;;;;;;;;;;5075424;28;20088;-79
2023/10/02 01:17:39;;;;;;;28.15;17.58;;;;;;;;;;5074894;28;20055;-79
2023/10/02 01:20:14;;;;;;;26.17;18.23;;;;;;;;;;5058821;28;20051;-80
2023/10/02 01:22:44;;;;;;;25.05;17.92;;;;;;;;;;5063091;28;20051;-79
2023/10/02 01:25:14;;;;;;;23.45;17.80;;;;;;;;;;5059593;28;20511;-79
2023/10/02 01:27:41;;;;;;;27.05;18.52;;;;;;;;;;5043146;28;20045;-79
2023/10/02 01:30:18;;;;;;;26.58;18.88;;;;;;;;;;5058922;28;20056;-80
2023/10/02 01:35:38;;;;;;;27.40;18.25;;;;;;;;;;5058657;28;20052;-80
2023/10/02 01:38:14;;;;;;;24.77;17.25;;;;;;;;;;5058718;28;20076;-79
2023/10/02 01:40:42;;;;;;;22.48;17.58;;;;;;;;;;5043401;28;20047;-79
2023/10/02 01:43:14;;;;;;;27.33;18.38;;;;;;;;;;5058683;28;20045;-79
2023/10/02 01:45:44;;;;;;;26.42;18.65;;;;;;;;;;5058623;28;20052;-80
2023/10/02 01:48:14;;;;;;;27.90;18.83;;;;;;;;;;5026529;28;20131;-79
2023/10/02 01:50:43;;;;;;;22.95;17.48;;;;;;;;;;5059348;28;20094;-79
2023/10/02 01:53:28;;;;;;;27.75;19.67;;;;;;;;;;5058418;28;20499;-79
2023/10/02 01:56:00;;;;;;;23.00;17.75;;;;;;;;;;5044426;28;20473;-79
2023/10/02 01:58:29;;;;;;;23.15;17.55;;;;;;;;;;5058383;28;20461;-80
2023/10/02 02:00:57;;;;;;;26.73;18.73;;;;;;;;;;5058314;28;20064;-79
2023/10/02 02:03:27;;;;;;;25.02;19.15;;;;;;;;;;5041876;28;20476;-79
2023/10/02 02:05:53;;;;;;;22.90;18.40;;;;;;;;;;5058973;28;20053;-79
2023/10/02 02:08:22;;;;;;;23.33;17.83;;;;;;;;;;5058147;28;20045;-79
2023/10/02 02:11:14;;;;;;;25.63;18.98;;;;;;;;;;5058454;28;20480;-79
2023/10/02 02:13:44;;;;;;;24.95;18.65;;;;;;;;;;5044656;28;20049;-79
2023/10/02 02:16:31;;;;;;;23.40;18.05;;;;;;;;;;5041319;28;20041;-79
2023/10/02 02:18:58;;;;;;;23.45;18.95;;;;;;;;;;5058748;28;20044;-79
2023/10/02 02:21:25;;;;;;;24.52;19.15;;;;;;;;;;5057715;28;20051;-79
2023/10/02 02:24:03;;;;;;;25.95;18.85;;;;;;;;;;5058213;28;20106;-78
2023/10/02 02:26:33;;;;;;;27.55;19.40;;;;;;;;;;5071664;28;20056;-79
2023/10/02 02:29:01;;;;;;;25.77;18.42;;;;;;;;;;5061386;28;20138;-79
2023/10/02 02:31:31;;;;;;;26.77;19.00;;;;;;;;;;5078060;28;20047;-79
2023/10/02 02:34:09;;;;;;;24.73;17.90;;;;;;;;;;5077108;28;20052;-79
2023/10/02 02:36:35;;;;;;;25.45;18.65;;;;;;;;;;5077896;28;20101;-79
2023/10/02 02:39:16;;;;;;;25.00;18.17;;;;;;;;;;5077607;28;20055;-79
2023/10/02 02:41:44;;;;;;;26.95;18.52;;;;;;;;;;5061651;28;20094;-78
2023/10/02 02:44:35;;;;;;;26.20;19.35;;;;;;;;;;5078388;28;20379;-78
2023/10/02 02:46:57;;;;;;;23.67;18.00;;;;;;;;;;5076946;28;20052;-78
2023/10/02 02:49:25;;;;;;;26.17;18.85;;;;;;;;;;5077978;28;20094;-79
2023/10/02 02:51:55;;;;;;;27.65;20.33;;;;;;;;;;5077613;28;20142;-78
2023/10/02 02:54:25;;;;;;;26.42;18.85;;;;;;;;;;5078184;28;20360;-78
2023/10/02 02:56:56;;;;;;;28.70;18.98;;;;;;;;;;5060879;28;20047;-78
2023/10/02 02:59:26;;;;;;;26.23;19.73;;;;;;;;;;5077521;28;20400;-78
2023/10/02 03:02:08;;;;;;;25.75;20.27;;;;;;;;;;5078022;28;20130;-78
2023/10/02 03:04:35;;;;;;;27.10;20.55;;;;;;;;;;5060096;28;20056;-78
2023/10/02 03:07:08;;;;;;;31.67;20.70;;;;;;;;;;5077053;28;20055;-78
2023/10/02 03:09:34;;;;;;;28.50;20.10;;;;;;;;;;5045600;28;20044;-78
2023/10/02 03:12:05;;;;;;;26.48;20.23;;;;;;;;;;5076997;28;20101;-78
2023/10/02 03:14:32;;;;;;;26.35;19.33;;;;;;;;;;5061810;28;20048;-78
2023/10/02 03:17:22;;;;;;;29.02;20.58;;;;;;;;;;5077554;28;20051;-78
2023/10/02 03:19:45;;;;;;;24.13;19.60;;;;;;;;;;5076704;28;20051;-78
2023/10/02 03:22:11;;;;;;;27.30;19.70;;;;;;;;;;5076836;28;20168;-78
2023/10/02 03:24:39;;;;;;;25.45;20.33;;;;;;;;;;5076752;28;20040;-78
2023/10/02 03:27:09;;;;;;;26.98;19.15;;;;;;;;;;5059583;28;20492;-78
2023/10/02 03:29:36;;;;;;;26.02;18.63;;;;;;;;;;5076602;28;20507;-78
2023/10/02 03:32:04;;;;;;;24.52;18.55;;;;;;;;;;5076595;28;20052;-78
2023/10/02 03:34:34;;;;;;;24.25;17.98;;;;;;;;;;5076423;28;20048;-78
2023/10/02 03:37:08;;;;;;;27.63;19.25;;;;;;;;;;5076182;28;20079;-78
2023/10/02 03:39:52;;;;;;;26.42;19.52;;;;;;;;;;5076878;28;20083;-78
2023/10/02 03:42:22;;;;;;;25.15;18.83;;;;;;;;;;5076820;28;20054;-78
2023/10/02 03:44:54;;;;;;;29.48;19.40;;;;;;;;;;5076283;28;20399;-78
2023/10/02 03:47:21;;;;;;;27.58;19.65;;;;;;;;;;5060275;28;20047;-78
2023/10/02 03:49:47;;;;;;;25.65;18.63;;;;;;;;;;5076327;28;20112;-78
2023/10/02 03:52:16;;;;;;;26.73;19.52;;;;;;;;;;5076324;28;20052;-78
2023/10/02 03:54:43;;;;;;;27.80;19.33;;;;;;;;;;5076242;28;20052;-78
2023/10/02 03:57:37;;;;;;;29.98;21.02;;;;;;;;;;5043007;28;20186;-78
2023/10/02 04:00:18;;;;;;;26.83;18.67;;;;;;;;;;5076285;28;20044;-78
2023/10/02 04:02:45;;;;;;;25.20;19.25;;;;;;;;;;5077090;28;20058;-79
2023/10/02 04:05:12;;;;;;;29.05;19.33;;;;;;;;;;5076054;28;20051;-78
2023/10/02 04:07:39;;;;;;;29.17;19.38;;;;;;;;;;5059375;28;20480;-78
2023/10/02 04:10:06;;;;;;;28.48;20.02;;;;;;;;;;5076801;28;20044;-78
2023/10/02 04:12:50;;;;;;;29.63;19.58;;;;;;;;;;5076231;28;20055;-78
2023/10/02 04:15:17;;;;;;;26.05;18.80;;;;;;;;;;5076139;28;20512;-78
2023/10/02 04:17:49;;;;;;;26.95;19.58;;;;;;;;;;5075670;28;20047;-78
2023/10/02 04:20:27;;;;;;;27.33;18.90;;;;;;;;;;5076216;28;20102;-78
2023/10/02 04:23:18;;;;;;;26.40;20.13;;;;;;;;;;5076211;28;20126;-78
2023/10/02 04:25:44;;;;;;;25.85;19.48;;;;;;;;;;5061565;28;20416;-78
2023/10/02 04:28:12;;;;;;;25.60;19.70;;;;;;;;;;5059448;28;20048;-78
2023/10/02 04:30:38;;;;;;;28.02;19.55;;;;;;;;;;5059368;28;20086;-78
2023/10/02 04:33:08;;;;;;;28.35;20.05;;;;;;;;;;5075846;28;20131;-78
2023/10/02 04:35:57;;;;;;;24.77;18.92;;;;;;;;;;5076660;28;20083;-78
2023/10/02 04:38:49;;;;;;;25.50;19.90;;;;;;;;;;5075570;28;20054;-78
2023/10/02 04:41:25;;;;;;;29.63;20.42;;;;;;;;;;5076401;28;20138;-79
2023/10/02 04:43:57;;;;;;;28.73;19.27;;;;;;;;;;5075803;28;20052;-78
2023/10/02 04:46:24;;;;;;;27.13;19.02;;;;;;;;;;5076571;28;20054;-78
2023/10/02 04:48:59;;;;;;;28.02;19.25;;;;;;;;;;5076009;28;20048;-78
2023/10/02 04:51:28;;;;;;;28.40;18.23;;;;;;;;;;5076555;28;20135;-78
2023/10/02 04:53:57;;;;;;;24.67;18.83;;;;;;;;;;5059200;28;20079;-78
2023/10/02 04:56:28;;;;;;;29.92;19.92;;;;;;;;;;5076473;28;20048;-78
2023/10/02 04:58:57;;;;;;;26.52;19.08;;;;;;;;;;5062796;28;20053;-78
2023/10/02 05:01:29;;;;;;;27.23;20.17;;;;;;;;;;5062660;28;20467;-78
2023/10/02 05:04:02;;;;;;;28.48;20.33;;;;;;;;;;5079516;28;20479;-78
2023/10/02 05:11:50;;;;;;;27.70;20.63;;;;;;;;;;5079156;28;20582;-78
2023/10/02 05:14:26;;;;;;;27.85;20.23;;;;;;;;;;5078777;28;20097;-78
2023/10/02 05:16:52;;;;;;;30.45;21.08;;;;;;;;;;5063982;28;20047;-78
2023/10/02 05:19:46;;;;;;;29.33;20.85;;;;;;;;;;5078876;28;20434;-78
2023/10/02 05:22:07;;;;;;;30.33;21.27;;;;;;;;;;5065250;28;20052;-78
2023/10/02 05:24:34;;;;;;;31.95;20.50;;;;;;;;;;5079334;28;20048;-78
2023/10/02 05:27:03;;;;;;;28.30;20.02;;;;;;;;;;5078786;28;20098;-78
2023/10/02 05:29:36;;;;;;;27.17;20.05;;;;;;;;;;5079814;28;20426;-78
2023/10/02 05:32:19;;;;;;;26.90;19.63;;;;;;;;;;5061892;28;20060;-78
2023/10/02 05:34:58;;;;;;;29.38;20.80;;;;;;;;;;5064724;28;20126;-78
2023/10/02 05:37:31;;;;;;;28.13;18.58;;;;;;;;;;5062301;28;20090;-78
2023/10/02 05:40:32;;;;;;;28.83;20.95;;;;;;;;;;5078789;28;20048;-78
2023/10/02 05:43:09;;;;;;;27.83;20.15;;;;;;;;;;5078510;28;20084;-78
2023/10/02 05:45:47;;;;;;;28.50;19.45;;;;;;;;;;5079005;28;20062;-78
2023/10/02 05:48:27;;;;;;;28.15;19.98;;;;;;;;;;5078973;28;20074;-78
2023/10/02 05:51:09;;;;;;;25.60;19.05;;;;;;;;;;5062740;28;20428;-78
2023/10/02 05:53:36;;;;;;;25.38;18.77;;;;;;;;;;5078568;28;20082;-78
2023/10/02 05:56:05;;;;;;;28.70;19.52;;;;;;;;;;5078464;28;20055;-78
2023/10/02 05:58:36;;;;;;;27.95;19.27;;;;;;;;;;5061693;28;20047;-78
2023/10/02 06:01:06;;;;;;;28.00;19.60;;;;;;;;;;5078694;28;20047;-78
2023/10/02 06:03:37;;;;;;;26.50;19.13;;;;;;;;;;5078304;28;20127;-78
2023/10/02 06:06:15;;;;;;;25.35;18.40;;;;;;;;;;5078415;28;20385;-78
2023/10/02 06:08:51;;;;;;;28.65;17.90;;;;;;;;;;5060503;28;20130;-78
2023/10/02 06:11:28;;;;;;;26.48;17.88;;;;;;;;;;5078532;28;20052;-78
2023/10/02 06:13:57;;;;;;;26.90;18.77;;;;;;;;;;5062258;28;20062;-79
2023/10/02 06:16:29;;;;;;;26.38;17.63;;;;;;;;;;5061337;28;20079;-78
2023/10/02 06:19:02;;;;;;;24.45;18.20;;;;;;;;;;5078017;28;20044;-79
2023/10/02 06:21:31;;;;;;;25.45;18.70;;;;;;;;;;5078823;28;20044;-78
2023/10/02 06:23:58;;;;;;;26.25;18.15;;;;;;;;;;5061481;28;20051;-78
2023/10/02 06:26:46;;;;;;;25.23;17.60;;;;;;;;;;5060966;28;20086;-78
2023/10/02 06:29:25;;;;;;;27.92;18.33;;;;;;;;;;5077777;28;20408;-79
2023/10/02 06:32:05;;;;;;;28.65;18.73;;;;;;;;;;5077667;28;20047;-80
2023/10/02 06:34:38;;;;;;;26.08;18.35;;;;;;;;;;5078490;28;20052;-79
2023/10/02 06:37:08;;;;;;;29.13;18.83;;;;;;;;;;5077489;28;20040;-78
2023/10/02 06:39:38;;;;;;;27.75;19.05;;;;;;;;;;5060675;28;20052;-78
2023/10/02 06:42:05;;;;;;;27.98;19.05;;;;;;;;;;5077245;28;20135;-78
2023/10/02 06:44:52;;;;;;;28.80;18.58;;;;;;;;;;5077464;28;20044;-79
2023/10/02 06:47:23;;;;;;;30.02;18.83;;;;;;;;;;5077726;28;20052;-79
2023/10/02 06:49:53;;;;;;;25.70;18.25;;;;;;;;;;5061654;28;20044;-78
2023/10/02 06:52:20;;;;;;;26.63;18.58;;;;;;;;;;5077352;28;20411;-79
2023/10/02 06:54:49;;;;;;;25.88;18.17;;;;;;;;;;5077303;28;20047;-79
2023/10/02 06:57:20;;;;;;;26.27;18.13;;;;;;;;;;5077841;28;20071;-78
2023/10/02 06:59:53;;;;;;;25.92;18.38;;;;;;;;;;5078052;28;20472;-79
2023/10/02 07:02:27;;;;;;;22.58;16.50;;;;;;;;;;5060502;28;20044;-79
2023/10/02 07:04:53;;;;;;;24.52;18.88;;;;;;;;;;5077000;28;20044;-79
2023/10/02 07:07:26;;;;;;;26.75;18.52;;;;;;;;;;5060372;28;20055;-78
2023/10/02 07:10:07;;;;;;;24.73;18.75;;;;;;;;;;5077802;28;20051;-79
2023/10/02 07:12:40;;;;;;;24.95;18.45;;;;;;;;;;5060617;28;20052;-79
2023/10/02 07:15:20;;;;;;;26.75;18.48;;;;;;;;;;5077261;28;20055;-79
2023/10/02 07:17:49;;;;;;;28.08;18.92;;;;;;;;;;5060099;28;20036;-78
2023/10/02 07:20:17;;;;;;;26.15;18.35;;;;;;;;;;5076343;28;20055;-79
2023/10/02 07:22:44;;;;;;;24.98;17.88;;;;;;;;;;5059773;28;20047;-79
2023/10/02 07:25:10;;;;;;;24.50;18.00;;;;;;;;;;5057372;28;20079;-80
2023/10/02 07:27:37;;;;;;;27.85;18.95;;;;;;;;;;5056723;28;20052;-79
2023/10/02 07:30:04;;;;;;;25.38;18.77;;;;;;;;;;5056354;28;20563;-79
2023/10/02 07:32:32;;;;;;;26.58;17.95;;;;;;;;;;5056625;28;20071;-79
2023/10/02 07:35:17;;;;;;;28.60;19.60;;;;;;;;;;5056446;28;20507;-79
2023/10/02 07:37:43;;;;;;;29.02;18.92;;;;;;;;;;5057118;28;20452;-80
2023/10/02 07:40:09;;;;;;;28.38;19.05;;;;;;;;;;5039890;28;20048;-80
2023/10/02 07:42:35;;;;;;;27.33;19.08;;;;;;;;;;5039933;28;20477;-79
2023/10/02 07:45:11;;;;;;;29.70;19.98;;;;;;;;;;5056379;28;20044;-80
2023/10/02 07:50:33;;;;;;;28.27;19.65;;;;;;;;;;5057075;28;20052;-80
2023/10/02 07:53:01;;;;;;;27.10;19.35;;;;;;;;;;5057149;28;20052;-79
2023/10/02 07:55:27;;;;;;;28.45;20.42;;;;;;;;;;5057069;28;20045;-80
2023/10/02 07:58:00;;;;;;;28.15;18.77;;;;;;;;;;5056285;28;20052;-79
2023/10/02 08:00:40;;;;;;;28.75;19.88;;;;;;;;;;5056495;28;20102;-79
2023/10/02 08:03:31;;;;;;;26.35;19.17;;;;;;;;;;5056990;28;20101;-79
2023/10/02 08:05:56;;;;;;;28.33;19.70;;;;;;;;;;5056752;28;20105;-80
2023/10/02 08:08:24;;;;;;;26.25;18.75;;;;;;;;;;5039147;28;20048;-80
2023/10/02 08:10:50;;;;;;;27.17;18.95;;;;;;;;;;5056063;28;20127;-80
2023/10/02 08:13:32;;;;;;;27.23;20.10;;;;;;;;;;5056823;28;20049;-80
2023/10/02 08:16:02;;;;;;;26.20;19.92;;;;;;;;;;5040229;28;20080;-80
2023/10/02 08:18:28;;;;;;;26.60;19.55;;;;;;;;;;5055663;28;20101;-80
2023/10/02 08:20:55;;;;;;;37.78;20.60;;;;;;;;;;5056754;28;20044;-79
2023/10/02 08:23:24;;;;;;;28.10;19.33;;;;;;;;;;5039241;28;20045;-80
2023/10/02 08:26:05;;;;;;;35.63;20.10;;;;;;;;;;5064034;28;20498;-79
2023/10/02 08:28:33;;;;;;;37.22;19.88;;;;;;;;;;5060169;28;20056;-79
2023/10/02 08:31:00;;;;;;;28.20;19.02;;;;;;;;;;5076829;28;20052;-79
2023/10/02 08:33:27;;;;;;;27.67;19.58;;;;;;;;;;5080081;28;20066;-80
2023/10/02 08:35:54;;;;;;;27.30;20.20;;;;;;;;;;5063226;28;20553;-80
2023/10/02 08:38:23;;;;;;;26.52;19.35;;;;;;;;;;5097871;28;20385;-80
2023/10/02 08:40:57;;;;;;;26.77;19.52;;;;;;;;;;5047999;28;20093;-79
2023/10/02 08:43:32;;;;;;;31.05;20.55;;;;;;;;;;5079942;28;20492;-79
2023/10/02 08:45:59;;;;;;;28.05;20.98;;;;;;;;;;5063182;28;20048;-80
2023/10/02 08:48:25;;;;;;;28.75;20.27;;;;;;;;;;5079780;28;20078;-80
2023/10/02 08:50:58;;;;;;;29.10;20.67;;;;;;;;;;5079808;28;20074;-80
2023/10/02 08:53:26;;;;;;;29.25;20.17;;;;;;;;;;5079938;28;20058;-79
2023/10/02 08:56:01;;;;;;;28.67;20.35;;;;;;;;;;5079600;28;20202;-80
2023/10/02 08:58:28;;;;;;;28.83;19.95;;;;;;;;;;5062816;28;20044;-79
2023/10/02 09:01:40;;;;;;;29.27;21.13;;;;;;;;;;5079562;28;20074;-80
2023/10/02 09:03:48;;;;;;;28.70;20.13;;;;;;;;;;5066355;28;20051;-79
2023/10/02 09:06:31;;;;;;;26.92;19.40;;;;;;;;;;5062901;28;20086;-80
2023/10/02 09:09:16;;;;;;;28.20;19.58;;;;;;;;;;5079680;28;20052;-80
2023/10/02 09:11:42;;;;;;;25.83;19.80;;;;;;;;;;5079578;28;20048;-80
2023/10/02 09:19:55;;;;;;;29.95;20.90;;;;;;;;;;5066099;28;20093;-79
2023/10/02 09:22:23;;;;;;;34.13;21.02;;;;;;;;;;5079883;28;20480;-80
2023/10/02 09:24:58;;;;;;;30.20;21.10;;;;;;;;;;5063287;28;20044;-79
2023/10/02 09:27:28;;;;;;;28.08;21.15;;;;;;;;;;5079909;28;20059;-79
2023/10/02 09:30:21;;;;;;;31.45;22.05;;;;;;;;;;5079849;28;20043;-80
2023/10/02 09:32:52;;;;;;;29.08;21.55;;;;;;;;;;5079812;28;20052;-81
2023/10/02 09:35:32;;;;;;;29.55;20.58;;;;;;;;;;5062380;28;20059;-80
2023/10/02 09:38:06;;;;;;;31.80;22.40;;;;;;;;;;5079585;28;20365;-80
2023/10/02 09:40:54;;;;;;;29.65;22.50;;;;;;;;;;5063732;28;20091;-80
2023/10/02 09:43:31;;;;;;;32.35;23.20;;;;;;;;;;5078272;28;20043;-80
2023/10/02 09:46:05;;;;;;;29.48;21.25;;;;;;;;;;5061984;28;20056;-80
2023/10/02 09:48:46;;;;;;;32.92;23.13;;;;;;;;;;5062251;28;20040;-81
2023/10/02 09:51:29;;;;;;;32.70;23.92;;;;;;;;;;5079409;28;20142;-81
2023/10/02 09:54:13;;;;;;;33.55;24.15;;;;;;;;;;5062611;28;20103;-80
2023/10/02 09:59:56;;;;;;;34.38;26.63;;;;;;;;;;5056907;28;20047;-80
2023/10/02 10:07:52;;;;;;;34.83;25.77;;;;;;;;;;5078528;28;20442;-81
2023/10/02 10:10:49;;;;;;;36.67;25.85;;;;;;;;;;5062225;28;20407;-80
2023/10/02 10:13:32;;;;;;;33.67;24.50;;;;;;;;;;5079018;28;20051;-81
2023/10/02 10:16:18;;;;;;;33.65;25.08;;;;;;;;;;5079341;28;20460;-81
2023/10/02 10:19:22;;;;;;;35.80;25.15;;;;;;;;;;5078178;28;20051;-81
2023/10/02 10:21:55;;;;;;;;;;;;;;;;;;5079396;28;20055;-80
2023/10/02 10:24:31;;;;;;;37.60;24.95;;;;;;;;;;5062326;28;19973;-80
2023/10/02 10:26:57;;;;;;;32.13;25.48;;;;;;;;;;5078521;28;20100;-80
2023/10/02 10:29:41;;;;;;;33.67;24.15;;;;;;;;;;5078297;28;20047;-81
2023/10/02 10:32:23;;;;;;;35.85;25.50;;;;;;;;;;5061660;28;20052;-80
2023/10/02 10:35:17;;;;;;;35.50;24.75;;;;;;;;;;5078219;28;20495;-80
2023/10/02 10:37:47;;;;;;;32.97;24.10;;;;;;;;;;5047157;28;20039;-81
2023/10/02 10:40:43;;;;;;;35.20;25.23;;;;;;;;;;5078009;28;20044;-81
2023/10/02 10:43:13;;;;;;;42.10;24.27;;;;;;;;;;5078412;28;20048;-80
2023/10/02 10:45:40;;;;;;;32.67;22.73;;;;;;;;;;5060747;28;20086;-80
2023/10/02 10:48:22;;;;;;;30.45;22.52;;;;;;;;;;5061220;28;20048;-80
2023/10/02 10:50:57;;;;;;;31.52;23.60;;;;;;;;;;5078542;28;20090;-80
2023/10/02 10:53:32;;;;;;;32.60;22.52;;;;;;;;;;5078544;28;20048;-80
2023/10/02 10:56:16;;;;;;;32.25;22.25;;;;;;;;;;5061350;28;20075;-80
2023/10/02 10:58:44;;;;;;;30.58;22.80;;;;;;;;;;5077969;28;20475;-80
2023/10/02 11:01:16;;;;;;;31.98;21.92;;;;;;;;;;5060775;28;20044;-79
2023/10/02 11:03:54;;;;;;;31.98;20.70;;;;;;;;;;5077866;28;20052;-81
2023/10/02 11:06:21;;;;;;;27.98;20.50;;;;;;;;;;5060717;28;20135;-80
2023/10/02 11:09:27;;;;;;;31.17;20.75;;;;;;;;;;5076962;28;20066;-80
2023/10/02 11:11:54;;;;;;;26.50;19.50;;;;;;;;;;5076488;28;20059;-80
2023/10/02 11:14:34;;;;;;;27.05;18.95;;;;;;;;;;5076929;28;20051;-80
2023/10/02 11:17:04;;;;;;;26.52;19.48;;;;;;;;;;5060479;28;20448;-80
2023/10/02 11:22:02;;;;;;;28.70;19.42;;;;;;;;;;5076734;28;20052;-80
2023/10/02 11:24:28;;;;;;;28.27;19.85;;;;;;;;;;5059838;28;20106;-79
2023/10/02 11:27:04;;;;;;;29.25;18.17;;;;;;;;;;5059920;28;20100;-80
2023/10/02 11:29:40;;;;;;;25.45;17.98;;;;;;;;;;5060333;28;20048;-80
2023/10/02 11:32:27;;;;;;;24.13;18.45;;;;;;;;;;5077145;28;20097;-80
2023/10/02 11:34:59;;;;;;;23.73;16.42;;;;;;;;;;5076644;28;20139;-81
2023/10/02 11:37:27;;;;;;;23.92;17.08;;;;;;;;;;5076751;28;20040;-80
2023/10/02 11:39:55;;;;;;;27.35;16.88;;;;;;;;;;5059613;28;20066;-80
2023/10/02 11:42:22;;;;;;;26.85;17.40;;;;;;;;;;5076477;28;20048;-80
2023/10/02 11:44:48;;;;;;;25.48;16.80;;;;;;;;;;5077217;28;20052;-80
2023/10/02 11:47:14;;;;;;;23.73;17.05;;;;;;;;;;5076418;28;20052;-81
2023/10/02 11:49:42;;;;;;;25.42;16.90;;;;;;;;;;5059565;28;20040;-80
2023/10/02 11:52:08;;;;;;;22.52;16.20;;;;;;;;;;5060577;28;20048;-81
2023/10/02 11:54:39;;;;;;;24.00;17.92;;;;;;;;;;5076264;28;20530;-80
2023/10/02 11:57:08;;;;;;;23.98;16.55;;;;;;;;;;5076164;28;20549;-81
2023/10/02 11:59:37;;;;;;;22.13;16.23;;;;;;;;;;5077000;28;20134;-80
2023/10/02 12:02:04;;;;;;;23.52;16.90;;;;;;;;;;5060269;28;20078;-80
2023/10/02 12:04:31;;;;;;;23.30;16.58;;;;;;;;;;5076413;28;20063;-80
2023/10/02 12:06:57;;;;;;;22.25;16.17;;;;;;;;;;5076420;28;20139;-80
2023/10/02 12:09:24;;;;;;;25.17;16.40;;;;;;;;;;5076118;28;20468;-81
2023/10/02 12:11:50;;;;;;;21.60;15.50;;;;;;;;;;5059426;28;20051;-80
2023/10/02 12:14:16;;;;;;;21.67;15.65;;;;;;;;;;5059076;28;20055;-80
2023/10/02 12:16:43;;;;;;;20.65;15.70;;;;;;;;;;5076035;28;20051;-81
2023/10/02 12:19:10;;;;;;;19.25;14.73;;;;;;;;;;5059458;28;20148;-80
2023/10/02 12:21:37;;;;;;;21.05;15.68;;;;;;;;;;5059283;28;20048;-81
2023/10/02 12:24:07;;;;;;;22.17;15.25;;;;;;;;;;5075985;28;20047;-80
2023/10/02 12:26:33;;;;;;;19.95;14.73;;;;;;;;;;5075536;28;20078;-80
2023/10/02 12:29:00;;;;;;;24.33;15.48;;;;;;;;;;5059488;28;20059;-80
2023/10/02 12:31:27;;;;;;;20.08;14.38;;;;;;;;;;5059422;28;20083;-80
2023/10/02 12:33:53;;;;;;;18.63;13.48;;;;;;;;;;5075758;28;20547;-80
2023/10/02 12:36:20;;;;;;;17.73;14.15;;;;;;;;;;5059123;28;20055;-80
2023/10/02 12:38:46;;;;;;;20.60;12.18;;;;;;;;;;5058735;28;20086;-80
2023/10/02 12:41:20;;;;;;;17.52;13.90;;;;;;;;;;5076599;28;20048;-80
2023/10/02 12:43:47;;;;;;;19.67;13.15;;;;;;;;;;5075754;28;20143;-80
2023/10/02 12:46:16;;;;;;;17.17;13.00;;;;;;;;;;5075679;28;20055;-80
2023/10/02 12:48:43;;;;;;;16.08;12.77;;;;;;;;;;5042720;28;20043;-80
2023/10/02 12:51:09;;;;;;;21.73;14.13;;;;;;;;;;5042739;28;20126;-80
2023/10/02 12:53:39;;;;;;;20.80;14.82;;;;;;;;;;5059004;28;20049;-80
2023/10/02 12:56:05;;;;;;;19.63;14.05;;;;;;;;;;5059867;28;20050;-80
2023/10/02 12:58:32;;;;;;;21.02;15.68;;;;;;;;;;5075424;28;20484;-80
2023/10/02 13:00:58;;;;;;;20.90;15.45;;;;;;;;;;5058876;28;20052;-80
2023/10/02 13:03:25;;;;;;;25.58;15.48;;;;;;;;;;5059183;28;20044;-80
2023/10/02 13:05:51;;;;;;;18.77;15.35;;;;;;;;;;5058835;28;20114;-80
2023/10/02 13:08:17;;;;;;;22.02;15.98;;;;;;;;;;5075601;28;20519;-80
2023/10/02 13:10:43;;;;;;;21.85;14.90;;;;;;;;;;5076401;28;20040;-80
2023/10/02 13:13:11;;;;;;;22.40;15.52;;;;;;;;;;5059685;28;20134;-80
2023/10/02 13:15:37;;;;;;;22.23;15.30;;;;;;;;;;5058987;28;20052;-81
2023/10/02 13:18:04;;;;;;;25.40;16.67;;;;;;;;;;5076803;28;20040;-81
2023/10/02 13:20:30;;;;;;;21.92;15.50;;;;;;;;;;5079160;28;20089;-81
2023/10/02 13:22:56;;;;;;;20.60;15.10;;;;;;;;;;5063497;28;20097;-81
2023/10/02 13:25:22;;;;;;;22.17;15.68;;;;;;;;;;5043201;28;20083;-81
2023/10/02 13:27:52;;;;;;;20.98;15.13;;;;;;;;;;5059884;28;20483;-81
2023/10/02 13:30:25;;;;;;;18.98;14.50;;;;;;;;;;5058964;28;20118;-81
2023/10/02 13:32:52;;;;;;;20.83;14.90;;;;;;;;;;5027318;28;20098;-80
2023/10/02 13:35:18;;;;;;;23.02;14.55;;;;;;;;;;5026721;28;20055;-80
2023/10/02 13:37:44;;;;;;;19.27;14.82;;;;;;;;;;5058716;28;20044;-80
2023/10/02 13:43:07;;;;;;;18.08;14.65;;;;;;;;;;5033354;28;20048;-80
2023/10/02 13:45:37;;;;;;;20.27;14.30;;;;;;;;;;5058706;28;20048;-80
2023/10/02 13:48:06;;;;;;;19.83;14.18;;;;;;;;;;5058622;28;20052;-80
2023/10/02 13:50:35;;;;;;;21.33;13.77;;;;;;;;;;5058604;28;20057;-80
2023/10/02 13:53:01;;;;;;;23.02;14.65;;;;;;;;;;5058770;28;20083;-80
2023/10/02 13:55:28;;;;;;;21.77;14.23;;;;;;;;;;5042646;28;20048;-81
2023/10/02 13:57:56;;;;;;;22.38;14.77;;;;;;;;;;5041737;28;20101;-81
2023/10/02 14:00:23;;;;;;;21.92;14.93;;;;;;;;;;5058361;28;20477;-80
2023/10/02 14:02:52;;;;;;;21.30;15.60;;;;;;;;;;5059222;28;20102;-80
2023/10/02 14:05:21;;;;;;;20.30;14.65;;;;;;;;;;5059142;28;20193;-81
2023/10/02 14:07:47;;;;;;;20.88;14.32;;;;;;;;;;5058300;28;20052;-81
2023/10/02 14:10:14;;;;;;;22.35;14.50;;;;;;;;;;5041607;28;20145;-80
2023/10/02 14:12:44;;;;;;;18.58;13.80;;;;;;;;;;5041955;28;20052;-80
2023/10/02 14:15:16;;;;;;;21.48;15.52;;;;;;;;;;5041475;28;20098;-80
2023/10/02 14:17:51;;;;;;;21.25;15.02;;;;;;;;;;5041600;28;20048;-80
2023/10/02 14:20:18;;;;;;;20.02;14.65;;;;;;;;;;5041468;28;20492;-80
2023/10/02 14:22:48;;;;;;;20.65;15.00;;;;;;;;;;5057989;28;20094;-80
2023/10/02 14:25:16;;;;;;;20.52;14.98;;;;;;;;;;5040575;28;20044;-81
2023/10/02 14:27:42;;;;;;;21.25;14.25;;;;;;;;;;5057691;28;20091;-80
2023/10/02 14:30:12;;;;;;;20.10;14.13;;;;;;;;;;5056731;28;20048;-80
2023/10/02 14:32:40;;;;;;;19.40;14.00;;;;;;;;;;5042040;28;20040;-81
2023/10/02 14:35:07;;;;;;;19.73;14.60;;;;;;;;;;5041388;28;20052;-80
2023/10/02 14:37:33;;;;;;;19.77;14.15;;;;;;;;;;5057545;28;20044;-80
2023/10/02 14:40:00;;;;;;;20.48;15.40;;;;;;;;;;5041261;28;20040;-80
2023/10/02 14:42:26;;;;;;;19.85;15.57;;;;;;;;;;5057792;28;20455;-80
2023/10/02 14:44:53;;;;;;;25.33;15.43;;;;;;;;;;5057556;28;20135;-80
2023/10/02 14:47:19;;;;;;;24.42;15.32;;;;;;;;;;5040502;28;20055;-80
2023/10/02 14:49:45;;;;;;;23.17;16.77;;;;;;;;;;5057535;28;20048;-79
2023/10/02 14:52:11;;;;;;;20.60;15.18;;;;;;;;;;5041616;28;20052;-80
2023/10/02 14:54:37;;;;;;;18.50;15.15;;;;;;;;;;5058282;28;20084;-80
2023/10/02 14:57:03;;;;;;;20.52;14.23;;;;;;;;;;5058114;28;20448;-80
2023/10/02 14:59:29;;;;;;;19.60;15.27;;;;;;;;;;5057582;28;20056;-80
2023/10/02 15:01:55;;;;;;;22.77;15.38;;;;;;;;;;5040740;28;20048;-80
2023/10/02 15:04:23;;;;;;;21.77;14.80;;;;;;;;;;5057240;28;20044;-79
2023/10/02 15:06:49;;;;;;;18.20;14.00;;;;;;;;;;5057963;28;20074;-79
2023/10/02 15:09:22;;;;;;;18.10;13.30;;;;;;;;;;5057162;28;20057;-79
2023/10/02 15:11:49;;;;;;;17.40;12.73;;;;;;;;;;5057448;28;20465;-80
2023/10/02 15:14:15;;;;;;;17.65;12.77;;;;;;;;;;5057899;28;20114;-79
2023/10/02 15:16:41;;;;;;;14.88;12.63;;;;;;;;;;5040385;28;20037;-79
2023/10/02 15:19:07;;;;;;;16.25;11.95;;;;;;;;;;5057739;28;20444;-80